createdAt,value
2018-09-27T00:00:39.107Z,13.27
2018-09-27T00:03:07.967Z,11.30
2018-09-27T00:05:37.429Z,13.13
2018-09-27T00:08:06.880Z,9.97
2018-09-27T00:10:35.376Z,11.30
2018-09-27T00:13:03.883Z,10.83
2018-09-27T00:15:32.388Z,11.20
2018-09-27T00:18:00.998Z,10.20
2018-09-27T00:20:29.475Z,10.10
2018-09-27T00:22:58.140Z,14.93
2018-09-27T00:25:26.704Z,13.67
2018-09-27T00:27:55.266Z,15.23
2018-09-27T00:30:23.964Z,10.97
2018-09-27T00:32:52.631Z,9.93
2018-09-27T00:35:21.150Z,11.63
2018-09-27T00:37:56.061Z,10.60
2018-09-27T00:40:24.608Z,12.57
2018-09-27T00:42:54.257Z,9.43
2018-09-27T00:45:22.897Z,13.00
2018-09-27T00:47:51.445Z,11.20
2018-09-27T00:50:19.946Z,12.30
2018-09-27T00:52:48.511Z,10.87
2018-09-27T00:55:17.052Z,12.93
2018-09-27T00:57:45.561Z,11.83
2018-09-27T01:00:14.075Z,10.33
2018-09-27T01:02:42.632Z,13.37
2018-09-27T01:05:11.157Z,13.17
2018-09-27T01:07:39.635Z,10.17
2018-09-27T01:10:08.157Z,11.97
2018-09-27T01:12:36.657Z,10.80
2018-09-27T01:15:05.318Z,13.70
2018-09-27T01:17:33.877Z,13.60
2018-09-27T01:20:02.417Z,12.53
2018-09-27T01:22:30.926Z,10.70
2018-09-27T01:24:59.476Z,12.80
2018-09-27T01:27:27.984Z,10.53
2018-09-27T01:29:56.542Z,10.63
2018-09-27T01:32:24.946Z,10.10
2018-09-27T01:34:53.451Z,13.20
2018-09-27T01:37:21.980Z,12.57
2018-09-27T01:39:50.462Z,11.80
2018-09-27T01:42:18.998Z,9.43
2018-09-27T01:44:47.505Z,10.87
2018-09-27T01:47:16.030Z,10.33
2018-09-27T01:49:44.526Z,12.27
2018-09-27T01:52:13.008Z,11.87
2018-09-27T01:54:41.543Z,15.77
2018-09-27T01:57:10.176Z,12.93
2018-09-27T01:59:38.696Z,12.80
2018-09-27T02:02:07.344Z,11.23
2018-09-27T02:04:36.705Z,14.13
2018-09-27T02:07:05.483Z,11.80
2018-09-27T02:09:33.955Z,13.33
2018-09-27T02:12:02.483Z,12.93
2018-09-27T02:14:31.146Z,11.43
2018-09-27T02:16:59.638Z,12.33
2018-09-27T02:19:28.163Z,13.53
2018-09-27T02:21:56.668Z,13.67
2018-09-27T02:24:25.160Z,12.07
2018-09-27T02:26:53.593Z,13.63
2018-09-27T02:29:22.070Z,12.63
2018-09-27T02:31:50.610Z,16.20
2018-09-27T02:34:19.089Z,15.13
2018-09-27T02:36:47.616Z,13.60
2018-09-27T02:39:16.368Z,13.80
2018-09-27T02:41:45.092Z,14.10
2018-09-27T02:44:13.561Z,12.13
2018-09-27T02:46:42.013Z,11.77
2018-09-27T02:49:12.248Z,14.90
2018-09-27T02:51:40.761Z,11.37
2018-09-27T02:54:09.333Z,15.47
2018-09-27T02:56:37.809Z,17.00
2018-09-27T02:59:06.275Z,15.57
2018-09-27T03:01:34.815Z,10.77
2018-09-27T03:04:03.300Z,14.47
2018-09-27T03:06:31.793Z,10.73
2018-09-27T03:09:00.307Z,13.80
2018-09-27T03:11:28.910Z,13.63
2018-09-27T03:13:57.455Z,11.17
2018-09-27T03:16:25.978Z,13.97
2018-09-27T03:18:54.460Z,10.40
2018-09-27T03:21:23.079Z,11.20
2018-09-27T03:23:51.714Z,12.90
2018-09-27T03:26:20.201Z,21.37
2018-09-27T03:28:48.760Z,13.50
2018-09-27T03:31:17.347Z,12.13
2018-09-27T03:33:46.483Z,16.03
2018-09-27T03:36:15.087Z,14.30
2018-09-27T03:38:43.654Z,14.30
2018-09-27T03:41:12.188Z,13.07
2018-09-27T03:43:40.745Z,13.60
2018-09-27T03:46:09.186Z,13.43
2018-09-27T03:48:37.703Z,13.90
2018-09-27T03:51:06.429Z,13.80
2018-09-27T03:53:34.996Z,16.47
2018-09-27T03:56:03.621Z,19.73
2018-09-27T03:58:32.105Z,14.10
2018-09-27T04:01:00.685Z,13.50
2018-09-27T04:03:29.366Z,16.83
2018-09-27T04:05:58.093Z,16.00
2018-09-27T04:08:26.590Z,17.03
2018-09-27T04:10:55.081Z,15.37
2018-09-27T04:13:23.569Z,12.67
2018-09-27T04:15:52.108Z,15.13
2018-09-27T04:18:20.552Z,13.47
2018-09-27T04:20:52.171Z,14.67
2018-09-27T04:23:22.260Z,17.57
2018-09-27T04:25:51.771Z,12.83
2018-09-27T04:28:20.943Z,15.10
2018-09-27T04:30:49.549Z,17.97
2018-09-27T04:33:18.101Z,14.47
2018-09-27T04:35:46.652Z,16.07
2018-09-27T04:38:15.159Z,16.27
2018-09-27T04:40:43.688Z,14.57
2018-09-27T04:43:12.186Z,16.30
2018-09-27T04:45:40.825Z,16.77
2018-09-27T04:48:09.454Z,17.97
2018-09-27T04:50:38.027Z,16.53
2018-09-27T04:53:06.746Z,15.27
2018-09-27T04:55:35.348Z,19.43
2018-09-27T04:58:03.955Z,19.27
2018-09-27T05:00:32.520Z,20.07
2018-09-27T05:03:00.983Z,16.77
2018-09-27T05:05:29.459Z,17.17
2018-09-27T05:07:58.021Z,19.70
2018-09-27T05:10:26.485Z,15.43
2018-09-27T05:12:55.014Z,14.27
2018-09-27T05:15:23.588Z,15.70
2018-09-27T05:17:52.056Z,16.93
2018-09-27T05:20:20.750Z,14.33
2018-09-27T05:22:49.240Z,13.80
2018-09-27T05:25:17.868Z,13.43
2018-09-27T05:27:46.685Z,14.30
2018-09-27T05:30:15.669Z,11.70
2018-09-27T05:32:44.336Z,12.07
2018-09-27T05:35:12.940Z,12.00
2018-09-27T05:37:41.859Z,11.23
2018-09-27T05:40:10.312Z,10.33
2018-09-27T05:42:38.818Z,12.83
2018-09-27T05:45:07.469Z,11.17
2018-09-27T05:47:35.942Z,16.70
2018-09-27T05:50:05.084Z,13.27
2018-09-27T05:52:33.477Z,13.30
2018-09-27T05:55:01.952Z,8.23
2018-09-27T05:57:30.451Z,9.80
2018-09-27T05:59:58.891Z,12.13
2018-09-27T06:02:27.394Z,10.43
2018-09-27T06:04:56.098Z,11.53
2018-09-27T06:07:24.821Z,11.53
2018-09-27T06:09:53.398Z,12.63
2018-09-27T06:12:22.064Z,9.50
2018-09-27T06:14:51.353Z,9.43
2018-09-27T06:17:20.068Z,10.20
2018-09-27T06:19:48.798Z,10.63
2018-09-27T06:22:17.313Z,10.43
2018-09-27T06:24:45.794Z,11.00
2018-09-27T06:27:14.303Z,10.80
2018-09-27T06:29:42.782Z,7.87
2018-09-27T06:32:11.306Z,9.07
2018-09-27T06:34:39.851Z,10.70
2018-09-27T06:37:08.412Z,9.10
2018-09-27T06:39:37.021Z,8.97
2018-09-27T06:42:05.634Z,11.83
2018-09-27T06:44:34.258Z,7.33
2018-09-27T06:47:02.812Z,12.33
2018-09-27T06:49:31.501Z,10.97
2018-09-27T06:52:00.072Z,10.40
2018-09-27T06:54:28.650Z,8.47
2018-09-27T06:56:57.276Z,10.07
2018-09-27T06:59:25.993Z,11.93
2018-09-27T07:01:54.540Z,11.03
2018-09-27T07:04:23.182Z,7.57
2018-09-27T07:06:51.756Z,7.43
2018-09-27T07:09:20.511Z,9.10
2018-09-27T07:11:49.095Z,10.17
2018-09-27T07:14:17.632Z,8.97
2018-09-27T07:16:46.153Z,8.87
2018-09-27T07:19:14.744Z,10.07
2018-09-27T07:21:43.306Z,7.77
2018-09-27T07:24:11.831Z,9.80
2018-09-27T07:26:40.472Z,11.07
2018-09-27T07:29:08.832Z,16.40
2018-09-27T07:31:37.395Z,8.57
2018-09-27T07:34:05.940Z,8.20
2018-09-27T07:36:34.664Z,7.13
2018-09-27T07:39:03.420Z,8.27
2018-09-27T07:41:32.104Z,8.83
2018-09-27T07:44:00.753Z,7.97
2018-09-27T07:46:29.301Z,9.83
2018-09-27T07:48:57.845Z,8.27
2018-09-27T07:51:26.681Z,8.37
2018-09-27T07:53:55.340Z,7.63
2018-09-27T07:56:24.078Z,11.63
2018-09-27T07:58:52.852Z,7.37
2018-09-27T08:01:21.751Z,7.60
2018-09-27T08:03:50.706Z,7.23
2018-09-27T08:06:19.328Z,9.57
2018-09-27T08:08:47.944Z,9.47
2018-09-27T08:11:16.617Z,9.03
2018-09-27T08:13:45.037Z,8.83
2018-09-27T08:16:13.792Z,8.43
2018-09-27T08:18:42.495Z,7.97
2018-09-27T08:21:11.183Z,10.17
2018-09-27T08:23:39.810Z,8.73
2018-09-27T08:26:08.371Z,8.23
2018-09-27T08:28:37.245Z,8.83
2018-09-27T08:31:05.939Z,7.33
2018-09-27T08:33:34.501Z,9.50
2018-09-27T08:36:03.229Z,7.13
2018-09-27T08:38:31.876Z,7.53
2018-09-27T08:41:00.652Z,6.60
2018-09-27T08:43:29.266Z,6.43
2018-09-27T08:45:57.964Z,10.47
2018-09-27T08:48:26.614Z,6.47
2018-09-27T08:50:55.177Z,6.33
2018-09-27T08:53:23.988Z,7.90
2018-09-27T08:55:52.684Z,7.10
2018-09-27T08:58:21.397Z,7.50
2018-09-27T09:00:50.018Z,8.40
2018-09-27T09:03:18.652Z,6.80
2018-09-27T09:05:47.327Z,9.83
2018-09-27T09:08:15.964Z,8.27
2018-09-27T09:10:44.557Z,6.93
2018-09-27T09:13:13.022Z,10.63
2018-09-27T09:15:41.730Z,8.37
2018-09-27T09:18:10.249Z,10.83
2018-09-27T09:20:38.793Z,10.33
2018-09-27T09:23:07.485Z,9.33
2018-09-27T09:25:36.152Z,7.73
2018-09-27T09:28:04.698Z,8.43
2018-09-27T09:30:33.211Z,8.07
2018-09-27T09:33:01.900Z,13.10
2018-09-27T09:35:30.539Z,9.90
2018-09-27T09:37:59.222Z,11.43
2018-09-27T09:40:27.791Z,9.50
2018-09-27T09:42:56.642Z,7.40
2018-09-27T09:45:25.484Z,7.63
2018-09-27T09:47:54.299Z,11.47
2018-09-27T09:50:23.059Z,9.37
2018-09-27T09:52:51.942Z,9.77
2018-09-27T09:55:20.509Z,10.73
2018-09-27T09:57:49.132Z,7.63
2018-09-27T10:00:17.632Z,7.33
2018-09-27T10:02:46.160Z,6.70
2018-09-27T10:05:14.694Z,7.13
2018-09-27T10:07:43.195Z,5.10
2018-09-27T10:10:11.689Z,6.27
2018-09-27T10:12:40.183Z,6.03
2018-09-27T10:15:08.723Z,6.60
2018-09-27T10:17:37.389Z,4.93
2018-09-27T10:20:06.056Z,6.07
2018-09-27T10:22:34.609Z,5.73
2018-09-27T10:25:03.186Z,7.53
2018-09-27T10:27:31.883Z,6.43
2018-09-27T10:30:00.440Z,5.87
2018-09-27T10:32:29.018Z,5.00
2018-09-27T10:34:57.574Z,5.40
2018-09-27T10:37:26.120Z,5.67
2018-09-27T10:39:54.702Z,5.03
2018-09-27T10:42:23.250Z,4.63
2018-09-27T10:44:51.800Z,7.23
2018-09-27T10:47:20.422Z,6.53
2018-09-27T10:49:48.983Z,5.53
2018-09-27T10:52:17.664Z,6.17
2018-09-27T10:54:46.279Z,4.73
2018-09-27T10:57:15.005Z,5.77
2018-09-27T10:59:43.499Z,5.83
2018-09-27T11:02:12.093Z,5.50
2018-09-27T11:04:40.740Z,7.43
2018-09-27T11:07:09.305Z,9.23
2018-09-27T11:09:38.078Z,4.80
2018-09-27T11:12:07.725Z,7.63
2018-09-27T11:14:36.269Z,4.97
2018-09-27T11:17:05.475Z,6.53
2018-09-27T11:19:33.977Z,14.33
2018-09-27T11:22:02.613Z,5.40
2018-09-27T11:24:31.089Z,7.03
2018-09-27T11:26:59.736Z,5.60
2018-09-27T11:29:33.681Z,5.80
2018-09-27T11:32:07.419Z,5.20
2018-09-27T11:34:35.946Z,5.40
2018-09-27T11:37:04.530Z,6.63
2018-09-27T11:39:33.032Z,5.03
2018-09-27T11:42:01.658Z,5.67
2018-09-27T11:44:30.346Z,6.30
2018-09-27T11:46:58.908Z,6.10
2018-09-27T11:49:27.574Z,5.70
2018-09-27T11:51:56.113Z,6.30
2018-09-27T11:54:24.800Z,7.73
2018-09-27T11:56:53.286Z,5.33
2018-09-27T11:59:21.786Z,7.87
2018-09-27T12:01:50.347Z,5.67
2018-09-27T12:04:19.057Z,4.97
2018-09-27T12:06:47.837Z,5.33
2018-09-27T12:09:16.442Z,6.60
2018-09-27T12:11:45.537Z,7.93
2018-09-27T12:14:14.665Z,8.40
2018-09-27T12:16:43.260Z,6.63
2018-09-27T12:19:11.750Z,6.37
2018-09-27T12:21:40.236Z,5.83
2018-09-27T12:24:08.817Z,7.00
2018-09-27T12:26:37.490Z,5.70
2018-09-27T12:29:06.147Z,7.43
2018-09-27T12:31:34.712Z,8.87
2018-09-27T12:34:03.441Z,6.67
2018-09-27T12:36:32.168Z,6.90
2018-09-27T12:39:00.895Z,6.47
2018-09-27T12:41:29.405Z,7.23
2018-09-27T12:43:57.926Z,11.43
2018-09-27T12:46:26.645Z,9.57
2018-09-27T12:48:55.233Z,10.00
2018-09-27T12:51:23.840Z,8.83
2018-09-27T12:53:52.425Z,8.73
2018-09-27T12:56:21.150Z,9.10
2018-09-27T12:58:49.752Z,6.90
2018-09-27T13:01:18.448Z,7.13
2018-09-27T13:03:47.096Z,7.47
2018-09-27T13:06:15.875Z,8.17
2018-09-27T13:08:44.822Z,7.87
2018-09-27T13:11:13.710Z,12.47
2018-09-27T13:13:42.330Z,10.70
2018-09-27T13:16:10.940Z,8.73
2018-09-27T13:18:39.572Z,10.47
2018-09-27T13:21:08.145Z,9.30
2018-09-27T13:23:36.660Z,6.97
2018-09-27T13:26:05.248Z,6.83
2018-09-27T13:28:33.954Z,6.93
2018-09-27T13:31:02.469Z,9.23
2018-09-27T13:33:31.018Z,8.03
2018-09-27T13:35:59.563Z,9.33
2018-09-27T13:38:28.119Z,11.77
2018-09-27T13:40:56.921Z,10.40
2018-09-27T13:43:25.457Z,8.93
2018-09-27T13:45:54.175Z,7.17
2018-09-27T13:48:22.927Z,13.20
2018-09-27T13:50:51.620Z,10.73
2018-09-27T13:53:20.221Z,11.43
2018-09-27T13:55:49.272Z,11.67
2018-09-27T13:58:17.920Z,9.97
2018-09-27T14:00:46.612Z,10.80
2018-09-27T14:03:15.225Z,11.33
2018-09-27T14:05:43.774Z,10.53
2018-09-27T14:08:12.531Z,8.17
2018-09-27T14:10:41.085Z,11.60
2018-09-27T14:13:09.721Z,11.27
2018-09-27T14:15:38.487Z,8.93
2018-09-27T14:18:07.492Z,11.37
2018-09-27T14:20:36.032Z,8.77
2018-09-27T14:23:04.653Z,11.23
2018-09-27T14:25:33.399Z,8.13
2018-09-27T14:28:02.025Z,13.93
2018-09-27T14:30:30.743Z,8.93
2018-09-27T14:32:59.565Z,7.43
2018-09-27T14:35:28.420Z,11.30
2018-09-27T14:37:57.189Z,11.63
2018-09-27T14:40:25.936Z,11.07
2018-09-27T14:42:54.475Z,13.47
2018-09-27T14:45:23.151Z,8.80
2018-09-27T14:47:51.984Z,9.13
2018-09-27T14:50:20.672Z,12.27
2018-09-27T14:52:49.402Z,12.00
2018-09-27T14:55:17.954Z,8.63
2018-09-27T14:57:46.515Z,9.23
2018-09-27T15:00:15.306Z,10.93
2018-09-27T15:02:44.170Z,11.57
2018-09-27T15:05:12.903Z,12.03
2018-09-27T15:07:41.631Z,9.63
2018-09-27T15:10:10.281Z,9.73
2018-09-27T15:12:39.068Z,11.07
2018-09-27T15:15:08.051Z,7.17
2018-09-27T15:17:37.329Z,8.10
2018-09-27T15:20:06.282Z,10.03
2018-09-27T15:22:35.257Z,9.40
2018-09-27T15:25:04.185Z,11.40
2018-09-27T15:27:32.960Z,12.73
2018-09-27T15:30:01.962Z,17.40
2018-09-27T15:32:30.839Z,9.87
2018-09-27T15:34:59.449Z,9.50
2018-09-27T15:37:28.248Z,10.17
2018-09-27T15:39:57.084Z,10.47
2018-09-27T15:42:25.789Z,8.87
2018-09-27T15:44:54.401Z,14.47
2018-09-27T15:47:23.214Z,10.70
2018-09-27T15:49:51.969Z,8.83
2018-09-27T15:52:20.647Z,11.47
2018-09-27T15:54:49.358Z,12.47
2018-09-27T15:57:18.333Z,17.17
2018-09-27T15:59:47.181Z,10.67
2018-09-27T16:02:16.187Z,11.27
2018-09-27T16:04:45.566Z,13.10
2018-09-27T16:07:14.740Z,11.13
2018-09-27T16:09:43.507Z,13.57
2018-09-27T16:12:12.460Z,14.20
2018-09-27T16:14:42.050Z,15.20
2018-09-27T16:17:10.741Z,13.17
2018-09-27T16:19:39.390Z,12.93
2018-09-27T16:22:08.193Z,12.33
2018-09-27T16:24:36.942Z,13.40
2018-09-27T16:27:05.836Z,11.17
2018-09-27T16:29:34.604Z,16.17
2018-09-27T16:32:03.188Z,14.17
2018-09-27T16:34:31.683Z,12.17
2018-09-27T16:37:00.489Z,9.27
2018-09-27T16:39:29.489Z,11.53
2018-09-27T16:41:58.234Z,12.23
2018-09-27T16:44:26.851Z,13.37
2018-09-27T16:46:56.594Z,12.43
2018-09-27T16:49:25.220Z,10.27
2018-09-27T16:51:54.520Z,9.57
2018-09-27T16:54:23.441Z,10.60
2018-09-27T16:56:52.144Z,8.87
2018-09-27T16:59:20.874Z,9.83
2018-09-27T17:01:49.710Z,10.77
2018-09-27T17:04:18.450Z,9.20
2018-09-27T17:06:47.495Z,11.77
2018-09-27T17:09:16.274Z,8.57
2018-09-27T17:11:44.829Z,12.23
2018-09-27T17:14:13.484Z,18.17
2018-09-27T17:16:42.095Z,11.40
2018-09-27T17:19:10.665Z,10.53
2018-09-27T17:21:39.411Z,9.13
2018-09-27T17:24:08.248Z,8.17
2018-09-27T17:26:36.894Z,10.43
2018-09-27T17:29:05.563Z,9.07
2018-09-27T17:31:34.208Z,12.80
2018-09-27T17:34:02.840Z,12.80
2018-09-27T17:36:31.688Z,13.03
2018-09-27T17:39:00.395Z,12.60
2018-09-27T17:41:29.308Z,15.37
2018-09-27T17:43:58.049Z,14.80
2018-09-27T17:46:26.749Z,16.67
2018-09-27T17:48:55.477Z,10.77
2018-09-27T17:51:24.304Z,12.73
2018-09-27T17:53:53.123Z,11.10
2018-09-27T17:56:21.838Z,13.53
2018-09-27T17:58:50.605Z,19.83
2018-09-27T18:01:19.224Z,12.37
2018-09-27T18:03:47.969Z,14.17
2018-09-27T18:06:16.671Z,16.37
2018-09-27T18:08:45.850Z,19.20
2018-09-27T18:11:14.637Z,16.83
2018-09-27T18:13:43.502Z,18.53
2018-09-27T18:16:12.688Z,18.07
2018-09-27T18:18:41.683Z,13.93
2018-09-27T18:21:10.463Z,11.87
2018-09-27T18:23:39.343Z,13.67
2018-09-27T18:26:08.216Z,12.57
2018-09-27T18:28:37.330Z,14.03
2018-09-27T18:31:06.277Z,17.23
2018-09-27T18:33:35.295Z,21.80
2018-09-27T18:36:04.234Z,12.27
2018-09-27T18:38:33.258Z,13.80
2018-09-27T18:41:02.268Z,21.17
2018-09-27T18:43:31.302Z,20.20
2018-09-27T18:46:00.586Z,15.77
2018-09-27T18:48:29.697Z,17.60
2018-09-27T18:50:58.954Z,16.73
2018-09-27T18:53:28.340Z,15.60
2018-09-27T18:55:57.181Z,15.07
2018-09-27T18:58:26.140Z,17.67
2018-09-27T19:00:55.181Z,18.93
2018-09-27T19:03:24.411Z,16.67
2018-09-27T19:05:53.767Z,19.73
2018-09-27T19:08:22.959Z,19.80
2018-09-27T19:10:52.715Z,19.50
2018-09-27T19:13:21.802Z,14.60
2018-09-27T19:15:50.693Z,18.47
2018-09-27T19:18:19.580Z,17.83
2018-09-27T19:20:48.701Z,22.23
2018-09-27T19:23:17.794Z,21.00
2018-09-27T19:25:46.758Z,17.00
2018-09-27T19:28:15.817Z,17.33
2018-09-27T19:30:45.575Z,18.80
2018-09-27T19:33:14.452Z,20.07
2018-09-27T19:35:43.207Z,17.20
2018-09-27T19:38:11.999Z,14.30
2018-09-27T19:40:41.167Z,21.37
2018-09-27T19:43:10.011Z,16.37
2018-09-27T19:45:39.077Z,21.10
2018-09-27T19:48:07.690Z,16.17
2018-09-27T19:50:36.537Z,13.93
2018-09-27T19:53:05.359Z,19.73
2018-09-27T19:55:34.218Z,18.63
2018-09-27T19:58:03.075Z,16.50
2018-09-27T20:00:32.062Z,22.67
2018-09-27T20:03:00.755Z,18.07
2018-09-27T20:05:30.756Z,14.07
2018-09-27T20:08:00.081Z,16.00
2018-09-27T20:10:29.046Z,15.30
2018-09-27T20:12:58.046Z,14.93
2018-09-27T20:18:07.212Z,18.07
2018-09-27T20:20:35.945Z,16.93
2018-09-27T20:23:04.609Z,18.20
2018-09-27T20:25:33.592Z,19.63
2018-09-27T20:28:02.330Z,16.57
2018-09-27T20:30:30.913Z,16.07
2018-09-27T20:32:59.613Z,14.43
2018-09-27T20:35:28.364Z,14.53
2018-09-27T20:37:57.178Z,14.00
2018-09-27T20:40:25.936Z,14.10
2018-09-27T20:42:54.696Z,13.33
2018-09-27T20:45:23.915Z,15.60
2018-09-27T20:47:52.483Z,15.57
2018-09-27T20:50:21.168Z,12.67
2018-09-27T20:52:50.268Z,16.10
2018-09-27T20:55:18.971Z,18.33
2018-09-27T20:57:47.565Z,14.03
2018-09-27T21:00:18.067Z,13.03
2018-09-27T21:02:47.255Z,12.60
2018-09-27T21:05:20.376Z,14.50
2018-09-27T21:07:49.222Z,13.60
2018-09-27T21:10:18.722Z,17.70
2018-09-27T21:12:47.372Z,13.93
2018-09-27T21:15:18.253Z,12.57
2018-09-27T21:17:47.102Z,17.13
2018-09-27T21:20:16.764Z,15.60
2018-09-27T21:22:45.633Z,12.83
2018-09-27T21:25:14.489Z,14.87
2018-09-27T21:27:43.611Z,13.60
2018-09-27T21:30:13.016Z,15.47
2018-09-27T21:32:42.224Z,12.97
2018-09-27T21:35:11.055Z,16.83
2018-09-27T21:37:42.319Z,15.00
2018-09-27T21:40:11.289Z,14.73
2018-09-27T21:42:40.145Z,14.83
2018-09-27T21:45:08.968Z,20.17
2018-09-27T21:47:37.984Z,14.83
2018-09-27T21:50:06.915Z,14.40
2018-09-27T21:52:35.613Z,15.33
2018-09-27T21:55:06.030Z,14.50
2018-09-27T21:57:35.245Z,14.63
2018-09-27T22:00:04.821Z,14.93
2018-09-27T22:02:33.440Z,14.67
2018-09-27T22:05:02.790Z,13.40
2018-09-27T22:07:31.653Z,18.90
2018-09-27T22:10:01.373Z,16.43
2018-09-27T22:12:29.977Z,18.10
2018-09-27T22:14:58.698Z,16.57
2018-09-27T22:17:27.404Z,14.43
2018-09-27T22:19:56.022Z,16.23
2018-09-27T22:22:24.637Z,11.47
2018-09-27T22:24:53.184Z,15.03
2018-09-27T22:27:21.883Z,14.07
2018-09-27T22:29:50.402Z,15.20
2018-09-27T22:32:19.010Z,12.63
2018-09-27T22:34:47.553Z,13.20
2018-09-27T22:37:16.184Z,14.63
2018-09-27T22:39:44.818Z,15.23
2018-09-27T22:42:13.446Z,13.00
2018-09-27T22:44:42.244Z,11.53
2018-09-27T22:47:10.863Z,14.03
2018-09-27T22:49:39.371Z,16.30
2018-09-27T22:52:07.866Z,12.30
2018-09-27T22:54:36.474Z,12.47
2018-09-27T22:57:05.159Z,13.17
2018-09-27T22:59:33.668Z,14.43
2018-09-27T23:02:02.232Z,12.93
2018-09-27T23:04:30.792Z,16.50
2018-09-27T23:06:59.318Z,13.77
2018-09-27T23:09:27.903Z,14.30
2018-09-27T23:11:56.525Z,12.53
2018-09-27T23:14:25.465Z,15.20
2018-09-27T23:16:53.956Z,13.17
2018-09-27T23:19:22.573Z,13.90
2018-09-27T23:21:51.161Z,16.63
2018-09-27T23:24:19.749Z,13.77
2018-09-27T23:26:48.346Z,21.30
2018-09-27T23:29:16.858Z,20.87
2018-09-27T23:31:45.395Z,18.33
2018-09-27T23:34:13.954Z,15.23
2018-09-27T23:36:42.558Z,16.73
2018-09-27T23:39:11.507Z,20.40
2018-09-27T23:41:40.257Z,16.80
2018-09-27T23:44:09.383Z,17.43
2018-09-27T23:46:37.950Z,15.27
2018-09-27T23:49:06.491Z,17.00
2018-09-27T23:51:34.978Z,19.27
2018-09-27T23:54:03.465Z,14.33
2018-09-27T23:56:31.928Z,13.07
2018-09-27T23:59:00.457Z,20.63
